Time;durP1;ratioP1;P1;durP2;ratioP2;P2;SDS_P1;SDS_P2;PMS_P1;PMS_P2;Temp;Humidity;BMP_temperature;BMP_pressure;BME280_temperature;BME280_humidity;BME280_pressure;Samples;Min_cycle;Max_cycle;Signal;HPM_P1;HPM_P2
2023/06/10 00:00:27;;;;;;;5.13;3.83;;;19.50;66.00;;;19.49;49.39;101078.34;5054811;28;20186;-75
2023/06/10 00:03:01;;;;;;;9.23;4.23;;;19.50;66.70;;;19.34;49.95;101076.88;5054269;28;20677;-75
2023/06/10 00:05:35;;;;;;;6.70;4.10;;;19.30;67.00;;;19.37;50.16;101085.44;5054642;28;20194;-75
2023/06/10 00:08:10;;;;;;;6.30;4.40;;;19.20;67.50;;;19.29;49.80;101082.06;5054642;28;20277;-75
2023/06/10 00:10:44;;;;;;;6.00;4.03;;;19.30;67.20;;;19.30;50.20;101084.59;5054266;28;20194;-75
2023/06/10 00:13:18;;;;;;;7.33;4.10;;;19.30;67.60;;;19.21;50.89;101085.84;5054441;28;20384;-74
2023/06/10 00:15:51;;;;;;;4.53;3.80;;;19.20;68.30;;;19.14;50.97;101080.41;5054431;28;20285;-75
2023/06/10 00:18:26;;;;;;;7.00;4.23;;;19.10;68.80;;;19.10;51.16;101083.75;5054410;28;20259;-75
2023/06/10 00:21:04;;;;;;;7.83;4.00;;;19.10;68.80;;;19.08;51.68;101083.94;5053958;28;20194;-74
2023/06/10 00:23:38;;;;;;;5.67;4.03;;;19.00;69.40;;;18.95;52.22;101083.09;5054313;28;20221;-74
2023/06/10 00:26:11;;;;;;;6.20;4.10;;;18.90;70.30;;;18.93;52.54;101080.59;5054239;28;20193;-75
2023/06/10 00:28:45;;;;;;;8.40;4.33;;;19.00;70.80;;;18.68;53.44;101084.94;5054248;28;20285;-75
2023/06/10 00:31:18;;;;;;;8.57;3.83;;;18.70;71.60;;;18.68;53.56;101090.34;5054200;28;20214;-74
2023/06/10 00:33:52;;;;;;;8.57;4.33;;;18.70;72.40;;;18.71;53.83;101085.34;5054048;28;20229;-74
2023/06/10 00:36:26;;;;;;;7.27;3.97;;;18.70;72.30;;;18.74;53.94;101086.81;5054104;28;20285;-75
2023/06/10 00:38:59;;;;;;;6.90;4.70;;;18.70;72.50;;;18.68;54.00;101093.91;5054042;28;20276;-74
2023/06/10 00:41:33;;;;;;;6.80;4.30;;;18.70;72.30;;;18.64;54.27;101095.34;5053939;28;20301;-75
2023/06/10 00:44:07;;;;;;;7.03;4.00;;;18.60;73.00;;;18.74;54.05;101095.78;5053679;28;20226;-75
2023/06/10 00:46:41;;;;;;;6.97;4.17;;;18.70;73.00;;;18.71;53.95;101093.50;5053596;28;20753;-75
2023/06/10 00:49:14;;;;;;;6.40;3.97;;;18.70;72.80;;;18.65;54.61;101099.75;5053843;28;20213;-74
2023/06/10 00:51:48;;;;;;;9.93;4.20;;;18.70;73.10;;;18.57;54.72;101105.34;5053805;28;20186;-74
2023/06/10 00:54:22;;;;;;;7.07;3.90;;;18.60;73.70;;;18.47;54.82;101099.44;5053736;28;20282;-75
2023/06/10 00:56:56;;;;;;;8.40;4.60;;;18.50;74.00;;;18.26;55.41;101107.66;5053783;28;20212;-75
2023/06/10 00:59:29;;;;;;;5.07;3.87;;;18.20;74.30;;;18.44;54.96;101110.69;5053388;28;20221;-75
2023/06/10 01:02:04;;;;;;;6.93;4.17;;;18.40;75.20;;;18.35;54.95;101111.06;5053239;28;20615;-74
2023/06/10 01:04:38;;;;;;;7.73;4.40;;;18.40;74.20;;;18.30;55.52;101108.94;5053616;28;20185;-74
2023/06/10 01:07:23;;;;;;;7.83;4.40;;;18.40;74.50;;;18.29;55.73;101107.25;5053552;28;20217;-74
2023/06/10 01:10:06;;;;;;;7.70;4.17;;;18.30;74.90;;;18.27;55.73;101098.50;5053521;28;20236;-74
2023/06/10 01:12:51;;;;;;;6.43;4.10;;;18.30;75.30;;;18.12;56.90;101106.78;5053423;28;20313;-75
2023/06/10 01:15:25;;;;;;;8.27;4.00;;;18.10;76.20;;;18.05;56.99;101110.47;5053409;28;20226;-75
2023/06/10 01:18:04;;;;;;;7.50;4.23;;;18.00;76.90;;;18.01;57.06;101107.34;5053422;28;20197;-75
2023/06/10 01:20:40;;;;;;;11.83;5.00;;;18.00;77.10;;;17.96;57.32;101101.69;5053417;28;20195;-75
2023/06/10 01:23:16;;;;;;;6.73;4.10;;;18.10;77.10;;;17.99;57.39;101108.56;5053186;28;20281;-74
2023/06/10 01:25:59;;;;;;;6.13;3.80;;;18.00;77.50;;;17.96;57.52;101101.69;5053317;28;20197;-74
2023/06/10 01:28:45;;;;;;;6.90;4.07;;;17.90;77.90;;;17.84;57.76;101103.28;5053272;28;20214;-74
2023/06/10 01:31:33;;;;;;;6.73;4.10;;;17.90;78.20;;;17.59;59.01;101100.19;5053251;28;20212;-74
2023/06/10 01:34:11;;;;;;;8.03;4.40;;;17.70;79.30;;;17.61;58.68;101103.53;5053105;28;20230;-74
2023/06/10 01:36:48;;;;;;;6.30;3.97;;;17.60;79.90;;;17.55;59.68;101112.41;5053189;28;20186;-74
2023/06/10 01:39:25;;;;;;;7.77;4.63;;;17.60;80.30;;;17.51;60.03;101104.88;5053171;28;20278;-74
2023/06/10 01:41:59;;;;;;;5.67;4.23;;;17.50;80.80;;;17.44;59.91;101102.13;5052700;28;20226;-74
2023/06/10 01:44:33;;;;;;;8.83;4.63;;;17.50;81.50;;;17.47;59.90;101106.28;5052957;28;20296;-74
2023/06/10 01:47:07;;;;;;;5.43;4.20;;;17.50;81.60;;;17.40;60.42;101106.25;5052820;28;20187;-74
2023/06/10 01:49:40;;;;;;;6.43;4.17;;;17.50;82.10;;;17.27;61.23;101106.13;5053069;28;20220;-75
2023/06/10 01:52:13;;;;;;;8.43;4.13;;;17.40;82.30;;;17.24;60.50;101103.81;5052995;28;20340;-74
2023/06/10 01:54:47;;;;;;;8.63;4.80;;;17.30;83.00;;;17.30;60.74;101099.50;5053063;28;20277;-75
2023/06/10 01:57:20;;;;;;;8.50;4.93;;;17.30;83.20;;;17.20;61.17;101099.84;5053026;28;20201;-74
2023/06/10 01:59:53;;;;;;;8.07;4.73;;;17.30;84.50;;;17.20;60.88;101110.66;5053047;28;20225;-74
2023/06/10 02:02:27;;;;;;;7.40;4.43;;;17.20;84.10;;;17.14;61.25;101116.84;5052826;28;20233;-74
2023/06/10 02:05:01;;;;;;;7.00;4.23;;;17.20;84.50;;;17.04;62.07;101116.34;5052959;28;20201;-74
2023/06/10 02:07:34;;;;;;;10.03;4.50;;;17.20;84.80;;;17.00;62.36;101115.03;5052597;28;20662;-75
2023/06/10 02:10:10;;;;;;;7.13;4.47;;;17.00;85.70;;;17.05;61.58;101118.03;5052891;28;20221;-75
2023/06/10 02:12:43;;;;;;;9.20;4.43;;;17.10;86.00;;;16.96;61.97;101114.59;5055510;28;20805;-74
2023/06/10 02:15:17;;;;;;;6.13;4.20;;;17.20;86.70;;;16.97;61.85;101126.25;5056739;28;20228;-74
2023/06/10 02:17:50;;;;;;;10.60;4.90;;;17.10;86.90;;;16.85;62.67;101125.09;5056696;28;20360;-75
2023/06/10 02:20:24;;;;;;;6.77;4.50;;;16.90;87.20;;;16.88;62.70;101132.81;5056663;28;20191;-75
2023/06/10 02:22:57;;;;;;;6.13;4.40;;;16.90;87.60;;;16.76;63.14;101128.94;5056473;28;20284;-75
2023/06/10 02:25:31;;;;;;;8.40;4.97;;;16.80;89.50;;;16.64;63.50;101136.72;5056569;28;20233;-75
2023/06/10 02:28:04;;;;;;;6.90;5.17;;;16.80;88.60;;;16.65;63.73;101128.41;5056513;28;20568;-75
2023/06/10 02:30:39;;;;;;;7.30;4.70;;;16.80;89.10;;;16.56;64.13;101140.38;5056482;28;20281;-74
2023/06/10 02:33:13;;;;;;;7.50;4.60;;;16.70;89.70;;;16.49;64.56;101139.41;5056705;28;20236;-74
2023/06/10 02:35:46;;;;;;;9.10;5.27;;;16.70;90.00;;;16.31;64.80;101136.25;5056383;28;20307;-75
2023/06/10 02:38:19;;;;;;;9.17;5.00;;;16.50;90.40;;;16.39;64.89;101136.16;5056041;28;20550;-75
2023/06/10 02:40:53;;;;;;;5.00;4.50;;;16.60;90.70;;;16.32;64.61;101143.34;5055961;28;20198;-75
2023/06/10 02:43:26;;;;;;;8.60;4.70;;;16.50;91.10;;;16.17;65.85;101142.50;5056099;28;20328;-74
2023/06/10 02:45:59;;;;;;;9.43;5.13;;;16.30;91.70;;;16.05;66.91;101138.59;5055822;28;20220;-74
2023/06/10 02:48:41;;;;;;;7.63;5.00;;;16.30;91.70;;;16.12;66.43;101153.03;5056139;28;20198;-74
2023/06/10 02:51:14;;;;;;;8.80;4.80;;;16.20;92.10;;;16.10;66.56;101146.97;5055765;28;20281;-74
2023/06/10 02:53:48;;;;;;;12.10;5.30;;;16.20;91.90;;;16.01;66.29;101148.09;5056014;28;20221;-75
2023/06/10 02:56:22;;;;;;;9.27;4.97;;;16.30;92.00;;;16.09;66.38;101153.41;5056011;28;20281;-75
2023/06/10 02:58:55;;;;;;;7.87;4.47;;;16.20;92.10;;;16.03;66.46;101160.38;5055905;28;20194;-74
2023/06/10 03:01:31;;;;;;;11.10;5.43;;;16.20;92.40;;;15.99;66.60;101166.38;5055611;28;20285;-75
2023/06/10 03:04:04;;;;;;;7.33;4.87;;;16.20;92.30;;;16.08;65.84;101147.19;5055736;28;20225;-75
2023/06/10 03:06:42;;;;;;;9.57;5.07;;;16.20;92.50;;;16.06;66.25;101153.78;5055492;28;20650;-75
2023/06/10 03:09:15;;;;;;;9.50;5.20;;;16.20;92.40;;;16.10;65.81;101160.47;5055750;28;20225;-74
2023/06/10 03:11:49;;;;;;;8.60;5.40;;;16.20;92.40;;;16.05;65.62;101152.94;5055661;28;20201;-74
2023/06/10 03:14:22;;;;;;;8.83;5.43;;;16.20;92.40;;;15.99;66.55;101153.66;5055694;28;20240;-75
2023/06/10 03:16:55;;;;;;;7.00;5.00;;;16.20;92.40;;;16.06;66.03;101149.19;5055576;28;20194;-75
2023/06/10 03:19:29;;;;;;;9.17;5.17;;;16.20;92.50;;;15.89;67.22;101149.59;5055578;28;20190;-75
2023/06/10 03:22:15;;;;;;;13.50;5.63;;;16.00;92.90;;;15.94;66.18;101149.88;5055493;28;20193;-75
2023/06/10 03:24:50;;;;;;;7.90;5.23;;;16.10;92.90;;;15.88;67.28;101156.00;5054449;28;20306;-75
2023/06/10 03:27:23;;;;;;;10.17;5.53;;;16.10;92.80;;;15.72;67.26;101152.44;5055132;28;20190;-74
2023/06/10 03:29:56;;;;;;;10.10;5.40;;;15.90;93.20;;;15.84;67.37;101155.53;5055379;28;20277;-74
2023/06/10 03:32:30;;;;;;;9.03;4.93;;;16.00;93.10;;;15.83;66.79;101147.59;5055248;28;20228;-74
2023/06/10 03:35:03;;;;;;;10.97;5.30;;;16.00;93.00;;;15.80;67.29;101153.38;5055294;28;20596;-74
2023/06/10 03:37:36;;;;;;;9.47;5.17;;;16.00;93.10;;;15.76;67.38;101154.75;5055233;28;20195;-74
2023/06/10 03:40:12;;;;;;;10.60;5.67;;;15.90;93.40;;;15.65;67.65;101156.06;5055208;28;20225;-75
2023/06/10 03:42:45;;;;;;;10.27;5.83;;;15.80;93.40;;;15.67;67.86;101156.72;5054684;28;20315;-75
2023/06/10 03:45:18;;;;;;;9.33;5.63;;;15.90;93.60;;;15.73;67.34;101169.47;5054759;28;20223;-75
2023/06/10 03:47:52;;;;;;;9.30;5.97;;;15.90;93.70;;;15.70;67.28;101173.38;5055028;28;20218;-75
2023/06/10 03:50:26;;;;;;;10.27;5.80;;;15.90;93.70;;;15.64;67.94;101182.22;5054940;28;20194;-75
2023/06/10 03:53:00;;;;;;;10.73;5.90;;;15.80;93.90;;;15.61;67.90;101189.84;5054530;28;20663;-74
2023/06/10 03:55:34;;;;;;;8.33;5.53;;;15.80;94.00;;;15.38;69.59;101181.72;5054853;28;20277;-74
2023/06/10 03:58:07;;;;;;;11.23;6.40;;;15.60;94.40;;;15.43;69.03;101173.09;5054509;28;20559;-74
2023/06/10 04:00:42;;;;;;;11.63;6.63;;;15.60;94.60;;;15.34;69.47;101179.59;5054482;28;20559;-74
2023/06/10 04:03:15;;;;;;;10.20;6.30;;;15.60;94.80;;;15.33;69.86;101177.91;5054634;28;20234;-74
2023/06/10 04:05:49;;;;;;;9.23;5.73;;;15.50;95.20;;;15.36;70.12;101177.53;5054327;28;20197;-74
2023/06/10 04:08:23;;;;;;;11.37;5.97;;;15.60;95.10;;;15.41;69.25;101180.53;5054334;28;20196;-75
2023/06/10 04:10:57;;;;;;;14.27;6.90;;;15.60;94.90;;;15.31;69.76;101186.16;5054574;28;20191;-75
2023/06/10 04:13:30;;;;;;;9.70;6.07;;;15.50;95.10;;;15.42;69.33;101172.25;5054205;28;20257;-74
2023/06/10 04:16:04;;;;;;;8.57;5.97;;;15.60;95.10;;;15.50;69.18;101169.53;5054495;28;20201;-75
2023/06/10 04:18:37;;;;;;;9.83;5.53;;;15.70;94.90;;;15.56;68.50;101179.59;5054401;28;20196;-75
2023/06/10 04:21:11;;;;;;;8.87;6.07;;;15.80;94.80;;;15.53;69.42;101174.56;5055222;28;20194;-75
2023/06/10 04:23:44;;;;;;;10.10;6.10;;;15.80;95.30;;;15.49;69.07;101173.25;5054208;28;20257;-75
2023/06/10 04:26:18;;;;;;;7.77;5.90;;;15.70;95.10;;;15.48;69.16;101182.34;5054407;28;20194;-75
2023/06/10 04:28:51;;;;;;;10.57;5.97;;;15.70;95.20;;;15.16;71.44;101174.47;5054278;28;20277;-75
2023/06/10 04:31:24;;;;;;;11.17;6.47;;;15.40;95.60;;;15.30;70.59;101179.09;5054233;28;20201;-75
2023/06/10 04:33:58;;;;;;;9.57;6.37;;;15.50;95.80;;;15.29;70.45;101173.88;5054038;28;20226;-74
2023/06/10 04:36:31;;;;;;;10.23;5.90;;;15.50;95.90;;;15.28;70.50;101164.94;5053322;28;20281;-74
2023/06/10 04:39:06;;;;;;;8.83;5.93;;;15.50;95.90;;;15.20;71.81;101167.72;5054102;28;20201;-74
2023/06/10 04:41:39;;;;;;;9.60;6.13;;;15.40;96.20;;;15.26;70.74;101167.00;5054038;28;20272;-75
2023/06/10 04:44:13;;;;;;;11.60;6.20;;;15.50;96.20;;;15.26;70.78;101161.59;5053661;28;20283;-75
2023/06/10 04:46:47;;;;;;;8.80;5.80;;;15.50;96.10;;;15.15;71.66;101170.09;5053929;28;20213;-75
2023/06/10 04:49:21;;;;;;;7.63;5.67;;;15.40;96.30;;;15.13;70.95;101162.22;5053892;28;20196;-75
2023/06/10 04:51:54;;;;;;;11.13;5.70;;;15.50;96.30;;;15.05;71.67;101175.72;5053450;28;20560;-74
2023/06/10 04:54:27;;;;;;;13.40;6.90;;;15.40;96.20;;;15.07;72.38;101172.84;5053807;28;20269;-75
2023/06/10 04:57:01;;;;;;;10.10;6.17;;;15.40;96.70;;;15.05;72.85;101169.50;5053797;28;20274;-75
2023/06/10 04:59:37;;;;;;;10.63;5.93;;;15.30;96.80;;;15.16;72.41;101174.47;5053712;28;20217;-75
2023/06/10 05:02:10;;;;;;;12.57;6.40;;;15.40;96.90;;;15.11;72.26;101163.38;5053605;28;20291;-74
2023/06/10 05:04:44;;;;;;;9.87;5.57;;;15.50;96.60;;;15.21;72.07;101166.69;5054375;28;20221;-74
2023/06/10 05:07:18;;;;;;;8.50;5.80;;;15.50;96.90;;;15.18;72.24;101175.13;5053271;28;20611;-75
2023/06/10 05:09:51;;;;;;;11.93;6.13;;;15.50;96.90;;;15.06;72.90;101179.28;5053251;28;20198;-75
2023/06/10 05:12:25;;;;;;;10.60;6.07;;;15.30;97.00;;;15.23;72.12;101178.16;5053490;28;20232;-75
2023/06/10 05:14:58;;;;;;;9.33;6.13;;;15.60;97.00;;;15.25;72.31;101178.78;5053471;28;20273;-75
2023/06/10 05:17:32;;;;;;;11.37;6.30;;;15.60;96.80;;;15.24;72.62;101183.34;5053468;28;20273;-75
2023/06/10 05:20:08;;;;;;;13.63;6.17;;;15.60;97.00;;;15.16;72.68;101183.41;5053520;28;20198;-76
2023/06/10 05:22:41;;;;;;;9.50;6.23;;;15.40;97.30;;;15.17;73.24;101176.16;5053010;28;20726;-75
2023/06/10 05:25:14;;;;;;;9.43;6.33;;;15.50;97.20;;;15.18;73.19;101188.63;5053256;28;20297;-75
2023/06/10 05:27:48;;;;;;;10.30;6.33;;;15.50;97.30;;;14.97;73.83;101183.03;5053318;28;20277;-75
2023/06/10 05:30:21;;;;;;;11.67;6.13;;;15.30;97.80;;;15.01;73.79;101181.66;5053305;28;20284;-75
2023/06/10 05:32:55;;;;;;;15.00;6.30;;;15.40;97.80;;;15.06;72.99;101187.38;5052877;28;20711;-75
2023/06/10 05:35:29;;;;;;;9.87;6.23;;;15.40;97.40;;;15.08;73.00;101180.75;5053211;28;20189;-75
2023/06/10 05:38:03;;;;;;;9.27;6.13;;;15.40;97.60;;;15.05;73.46;101180.28;5052884;28;20281;-75
2023/06/10 05:40:36;;;;;;;10.90;6.50;;;15.40;97.50;;;15.10;73.26;101183.31;5053151;28;20281;-75
2023/06/10 05:43:11;;;;;;;10.37;5.77;;;15.50;97.60;;;15.04;73.96;101176.75;5053062;28;20253;-75
2023/06/10 05:45:44;;;;;;;9.83;5.70;;;15.50;97.60;;;15.05;73.17;101181.13;5052718;28;20312;-75
2023/06/10 05:48:17;;;;;;;9.23;6.33;;;15.40;97.70;;;14.98;73.42;101179.31;5057311;28;20186;-75
2023/06/10 05:50:51;;;;;;;11.60;5.80;;;15.40;97.50;;;15.10;74.10;101183.31;5057259;28;20281;-75
2023/06/10 05:53:24;;;;;;;8.70;6.50;;;15.40;97.80;;;15.20;73.51;101186.59;5056818;28;20752;-75
2023/06/10 05:55:58;;;;;;;10.33;6.53;;;15.60;97.60;;;15.21;73.37;101178.31;5057120;28;20204;-75
2023/06/10 05:58:32;;;;;;;12.67;6.30;;;15.50;97.40;;;15.26;73.78;101177.78;5056776;28;20632;-75
2023/06/10 06:01:05;;;;;;;12.23;5.67;;;15.60;97.70;;;15.11;73.54;101182.25;5057016;28;20285;-75
2023/06/10 06:03:38;;;;;;;12.03;5.87;;;15.50;97.60;;;15.27;73.03;101178.63;5056945;28;20228;-75
2023/06/10 06:06:12;;;;;;;8.63;5.87;;;15.60;97.30;;;15.31;72.21;101171.84;5056554;28;20701;-75
2023/06/10 06:08:45;;;;;;;13.47;6.40;;;15.70;97.10;;;15.28;72.22;101181.13;5056932;28;20273;-75
2023/06/10 06:11:19;;;;;;;11.50;6.00;;;15.60;97.20;;;15.17;72.99;101181.56;5056846;28;20236;-75
2023/06/10 06:13:52;;;;;;;9.77;6.17;;;15.70;97.20;;;15.34;72.45;101175.03;5056752;28;20230;-75
2023/06/10 06:16:25;;;;;;;9.80;5.43;;;15.70;97.30;;;15.32;72.54;101187.84;5056759;28;20186;-75
2023/06/10 06:18:59;;;;;;;12.93;6.43;;;15.70;97.30;;;15.37;73.05;101190.84;5056751;28;20285;-75
2023/06/10 06:21:32;;;;;;;12.10;6.97;;;15.80;97.40;;;15.40;72.50;101184.25;5056703;28;20673;-75
2023/06/10 06:24:06;;;;;;;13.57;6.57;;;15.80;97.20;;;15.41;73.00;101180.53;5056304;28;20722;-75
2023/06/10 06:26:40;;;;;;;12.70;7.20;;;15.80;97.50;;;15.33;72.59;101183.28;5056302;28;20656;-75
2023/06/10 06:29:13;;;;;;;11.27;6.53;;;15.80;97.10;;;15.44;72.77;101197.22;5056173;28;20640;-75
2023/06/10 06:31:46;;;;;;;13.40;6.50;;;15.90;97.50;;;15.52;72.28;101189.06;5056541;28;20297;-75
2023/06/10 06:34:20;;;;;;;10.60;6.40;;;15.90;97.10;;;15.61;72.01;101179.88;5056454;28;20237;-75
2023/06/10 06:36:53;;;;;;;10.10;6.30;;;16.10;97.20;;;15.53;71.75;101190.75;5056366;28;20269;-75
2023/06/10 06:39:26;;;;;;;12.57;6.23;;;16.00;96.80;;;15.68;71.70;101188.91;5056376;28;20190;-76
2023/06/10 06:42:00;;;;;;;13.83;6.53;;;16.10;97.00;;;15.69;72.17;101190.59;5056294;28;20196;-75
2023/06/10 06:44:33;;;;;;;14.87;7.40;;;16.10;97.10;;;15.63;71.82;101191.34;5055924;28;20218;-75
2023/06/10 06:47:06;;;;;;;12.87;6.67;;;16.10;96.90;;;15.63;72.14;101193.19;5055805;28;20532;-75
2023/06/10 06:49:40;;;;;;;10.27;6.50;;;16.00;97.50;;;15.75;71.16;101188.19;5055878;28;20710;-75
2023/06/10 06:52:14;;;;;;;10.20;6.20;;;16.10;96.80;;;15.83;71.31;101188.09;5056090;28;20319;-75
2023/06/10 06:54:47;;;;;;;12.40;6.50;;;16.20;96.90;;;15.84;71.40;101193.34;5056051;28;20182;-75
2023/06/10 06:57:21;;;;;;;10.00;6.70;;;16.20;96.90;;;15.91;70.89;101191.59;5055671;28;20225;-75
2023/06/10 06:59:54;;;;;;;11.20;7.40;;;16.30;96.60;;;15.99;71.51;101193.38;5055449;28;20194;-75
2023/06/10 07:02:27;;;;;;;13.23;6.73;;;16.40;96.70;;;15.98;70.76;101192.53;5055553;28;20648;-75
2023/06/10 07:05:00;;;;;;;10.43;7.40;;;16.40;96.40;;;16.08;71.78;101194.94;5055786;28;20210;-75
2023/06/10 07:07:34;;;;;;;17.57;7.67;;;16.50;96.70;;;16.08;71.56;101193.09;5055842;28;20255;-75
2023/06/10 07:10:10;;;;;;;10.40;6.60;;;16.50;96.30;;;16.16;70.65;101198.38;5055538;28;20228;-75
2023/06/10 07:12:43;;;;;;;9.07;6.00;;;16.60;96.40;;;16.14;70.42;101195.03;5055313;28;20264;-75
2023/06/10 07:15:16;;;;;;;9.27;5.93;;;16.60;96.30;;;16.27;70.60;101199.78;5055369;28;20278;-75
2023/06/10 07:17:50;;;;;;;10.63;5.93;;;16.70;96.40;;;16.36;70.57;101196.00;5055352;28;20666;-75
2023/06/10 07:20:23;;;;;;;12.97;6.90;;;16.80;96.30;;;16.43;70.28;101194.22;5055653;28;20195;-75
2023/06/10 07:22:56;;;;;;;11.07;6.57;;;16.90;96.40;;;16.51;70.41;101196.81;5055488;28;20254;-75
2023/06/10 07:25:30;;;;;;;11.50;7.20;;;16.90;96.60;;;16.57;70.16;101195.28;5055147;28;20652;-75
2023/06/10 07:28:03;;;;;;;9.67;6.30;;;17.00;96.30;;;16.58;69.92;101200.47;5055132;28;20673;-75
2023/06/10 07:30:37;;;;;;;11.30;6.43;;;17.00;96.20;;;16.69;70.46;101202.69;5055099;28;20657;-75
2023/06/10 07:33:10;;;;;;;13.53;6.53;;;17.10;96.20;;;16.77;69.38;101203.63;5054928;28;20222;-75
2023/06/10 07:35:44;;;;;;;9.47;6.17;;;17.20;95.50;;;16.87;70.03;101213.13;5055315;28;20190;-75
2023/06/10 07:38:18;;;;;;;13.23;7.23;;;17.30;95.60;;;16.85;69.18;101208.94;5055287;28;20214;-75
2023/06/10 07:40:51;;;;;;;12.90;6.73;;;17.30;95.40;;;16.93;69.49;101198.81;5055233;28;20187;-75
2023/06/10 07:43:25;;;;;;;10.40;5.93;;;17.30;95.50;;;17.02;69.78;101188.75;5055105;28;20313;-76
2023/06/10 07:45:59;;;;;;;10.23;6.43;;;17.40;95.60;;;17.07;69.03;101194.41;5054697;28;20236;-75
2023/06/10 07:48:32;;;;;;;15.30;6.43;;;17.50;95.40;;;17.19;69.11;101196.41;5055045;28;20186;-76
2023/06/10 07:51:05;;;;;;;11.30;6.80;;;17.60;95.20;;;17.27;67.99;101192.75;5055494;28;20273;-76
2023/06/10 07:53:39;;;;;;;11.93;6.77;;;17.70;95.30;;;17.23;67.99;101186.88;5054540;28;20796;-75
2023/06/10 07:56:13;;;;;;;8.20;5.60;;;17.70;94.90;;;17.39;68.32;101193.06;5054875;28;20244;-76
2023/06/10 07:58:46;;;;;;;9.23;5.97;;;17.80;95.00;;;17.48;67.19;101190.03;5054857;28;20194;-76
2023/06/10 08:01:19;;;;;;;10.27;6.30;;;17.90;94.60;;;17.57;67.98;101197.00;5054791;28;20307;-76
2023/06/10 08:03:53;;;;;;;11.97;6.60;;;18.00;94.80;;;17.67;67.60;101199.41;5054566;28;20317;-75
2023/06/10 08:06:26;;;;;;;8.23;5.60;;;18.10;94.50;;;17.76;67.73;101191.97;5054660;28;20246;-75
2023/06/10 08:09:00;;;;;;;12.33;6.97;;;18.20;94.50;;;17.85;67.02;101198.91;5054426;28;20222;-76
2023/06/10 08:11:33;;;;;;;11.87;5.50;;;18.30;94.30;;;17.93;67.15;101194.19;5054377;28;20635;-76
2023/06/10 08:14:07;;;;;;;10.77;6.13;;;18.30;94.40;;;18.00;67.23;101194.25;5054232;28;20781;-75
2023/06/10 08:16:40;;;;;;;10.07;5.97;;;18.40;94.20;;;18.11;66.13;101201.84;5054535;28;20182;-75
2023/06/10 08:19:13;;;;;;;10.30;6.73;;;18.50;94.00;;;18.18;66.07;101189.16;5054457;28;20190;-75
2023/06/10 08:21:47;;;;;;;7.40;4.90;;;18.60;93.70;;;18.30;66.21;101192.97;5055350;28;20586;-75
2023/06/10 08:24:20;;;;;;;9.13;5.67;;;18.70;93.90;;;18.39;65.45;101186.34;5054394;28;20285;-75
2023/06/10 08:26:55;;;;;;;10.87;6.20;;;18.80;93.40;;;18.54;64.51;101184.38;5054294;28;20301;-75
2023/06/10 08:29:31;;;;;;;10.27;6.17;;;19.00;92.90;;;18.40;64.89;101189.91;5053972;28;20383;-76
2023/06/10 08:32:05;;;;;;;8.07;6.03;;;18.90;92.70;;;18.57;65.39;101181.25;5054264;28;20213;-75
2023/06/10 08:34:39;;;;;;;10.10;5.67;;;19.00;93.20;;;18.72;65.13;101176.53;5054235;28;20197;-76
2023/06/10 08:37:12;;;;;;;10.53;5.73;;;19.10;93.30;;;18.88;64.95;101177.19;5053874;28;20646;-76
2023/06/10 08:39:45;;;;;;;8.93;6.20;;;19.30;92.90;;;19.00;64.79;101168.28;5053889;28;20734;-77
2023/06/10 08:42:29;;;;;;;11.33;5.67;;;19.40;93.20;;;19.11;64.34;101172.28;5054037;28;20321;-76
2023/06/10 08:45:03;;;;;;;8.87;5.67;;;19.50;92.70;;;19.26;63.31;101181.06;5053564;28;20723;-77
2023/06/10 08:47:45;;;;;;;8.83;5.70;;;19.70;92.10;;;19.42;61.94;101175.25;5053703;28;20657;-77
2023/06/10 08:50:20;;;;;;;9.80;5.93;;;19.80;91.50;;;19.49;62.21;101170.66;5053989;28;20236;-76
2023/06/10 08:53:01;;;;;;;10.67;5.60;;;19.90;91.40;;;19.61;63.47;101179.06;5053909;28;20253;-77
2023/06/10 08:55:42;;;;;;;7.63;4.70;;;20.00;92.40;;;19.68;63.75;101164.44;5053875;28;20280;-76
2023/06/10 08:58:18;;;;;;;9.97;7.00;;;20.10;92.10;;;19.87;61.50;101167.31;5053623;28;20643;-76
2023/06/10 09:00:53;;;;;;;8.90;5.60;;;20.30;90.80;;;20.09;60.02;101166.03;5053477;28;20208;-76
2023/06/10 09:03:29;;;;;;;9.80;6.10;;;20.50;89.60;;;20.24;59.78;101167.47;5053742;28;20229;-76
2023/06/10 09:06:03;;;;;;;7.60;5.40;;;20.60;90.10;;;20.21;59.43;101170.63;5053395;28;20741;-76
2023/06/10 09:08:38;;;;;;;9.87;5.37;;;20.60;89.20;;;20.36;59.87;101164.13;5053370;28;20643;-75
2023/06/10 09:11:12;;;;;;;10.63;5.27;;;20.80;90.00;;;20.59;60.22;101167.19;5053638;28;20606;-75
2023/06/10 09:13:45;;;;;;;8.60;5.30;;;21.00;90.00;;;20.66;58.94;101174.25;5053540;28;20261;-76
2023/06/10 09:16:18;;;;;;;12.53;6.10;;;21.10;88.40;;;20.73;58.61;101164.19;5053265;28;20531;-77
2023/06/10 09:18:54;;;;;;;6.83;5.37;;;21.10;87.60;;;20.81;58.02;101167.72;5053504;28;20194;-76
2023/06/10 09:21:29;;;;;;;7.87;5.13;;;21.20;87.50;;;20.94;58.85;101171.19;5052674;28;20596;-76
2023/06/10 09:24:04;;;;;;;9.57;5.93;;;21.30;88.30;;;21.03;59.32;101158.16;5053487;28;20229;-77
2023/06/10 09:26:38;;;;;;;9.03;5.53;;;21.40;88.40;;;21.43;58.02;101162.34;5053380;28;20210;-76
2023/06/10 09:29:13;;;;;;;10.33;5.50;;;21.70;88.10;;;21.41;57.64;101166.31;5053343;28;20282;-76
2023/06/10 09:31:47;;;;;;;12.53;5.57;;;21.80;86.30;;;21.63;56.47;101165.75;5052982;28;20620;-76
2023/06/10 09:34:21;;;;;;;8.07;5.63;;;22.00;85.50;;;21.72;57.50;101167.13;5053315;28;20208;-76
2023/06/10 09:36:55;;;;;;;7.97;5.27;;;22.10;85.60;;;21.71;57.36;101162.72;5053497;28;20286;-76
2023/06/10 09:39:28;;;;;;;9.40;5.37;;;22.00;85.80;;;21.78;57.54;101167.28;5052982;28;20631;-76
2023/06/10 09:42:02;;;;;;;10.07;5.37;;;22.20;85.90;;;21.91;56.23;101161.75;5053168;28;20233;-75
2023/06/10 09:44:36;;;;;;;8.37;5.30;;;22.30;84.40;;;22.04;56.13;101164.34;5052947;28;20225;-77
2023/06/10 09:47:20;;;;;;;7.60;5.57;;;22.40;84.20;;;22.14;55.64;101168.22;5053150;28;20668;-77
2023/06/10 09:49:54;;;;;;;7.30;5.67;;;22.20;82.90;;;22.11;56.03;101162.38;5053128;28;20279;-77
2023/06/10 09:52:29;;;;;;;8.70;5.40;;;22.40;83.60;;;22.21;55.20;101168.16;5053021;28;20264;-77
2023/06/10 09:55:09;;;;;;;8.77;5.17;;;22.60;83.00;;;22.38;55.50;101155.56;5053058;28;20193;-77
2023/06/10 09:57:47;;;;;;;11.60;5.57;;;22.70;83.20;;;22.45;55.21;101164.53;5053076;28;20273;-77
2023/06/10 10:00:23;;;;;;;7.63;5.37;;;22.80;82.80;;;22.57;56.21;101161.84;5053036;28;20224;-77
2023/06/10 10:02:58;;;;;;;8.37;5.40;;;22.90;84.10;;;22.85;54.73;101162.16;5052969;28;20589;-77
2023/06/10 10:05:32;;;;;;;8.93;5.50;;;23.20;81.90;;;23.03;53.74;101159.38;5052987;28;20205;-77
2023/06/10 10:08:05;;;;;;;12.13;5.87;;;23.30;80.80;;;23.06;54.56;101160.81;5052996;28;20303;-77
2023/06/10 10:10:39;;;;;;;8.90;5.23;;;23.40;81.30;;;23.20;53.13;101163.13;5053027;28;20193;-77
2023/06/10 10:13:13;;;;;;;6.67;5.43;;;23.40;80.20;;;23.36;52.84;101161.59;5052871;28;20229;-78
2023/06/10 10:15:48;;;;;;;8.37;4.73;;;23.70;79.30;;;23.39;53.31;101157.59;5052588;28;20643;-78
2023/06/10 10:18:30;;;;;;;9.30;5.73;;;23.70;79.60;;;23.57;52.96;101169.28;5052812;28;20192;-77
2023/06/10 10:21:12;;;;;;;10.73;5.10;;;23.80;80.20;;;23.68;52.34;101164.91;5052500;28;20631;-77
2023/06/10 10:24:01;;;;;;;9.03;6.10;;;23.90;79.50;;;23.82;53.28;101162.78;5052416;28;20571;-77
2023/06/10 10:26:38;;;;;;;7.30;5.47;;;24.10;79.20;;;23.91;53.55;101161.34;5052715;28;20226;-78
2023/06/10 10:29:24;;;;;;;8.63;4.83;;;24.20;79.60;;;24.06;52.62;101167.19;5052398;28;20618;-77
2023/06/10 10:32:02;;;;;;;9.03;6.00;;;24.30;78.60;;;24.22;51.58;101159.13;5052798;28;20187;-77
2023/06/10 10:34:51;;;;;;;7.00;5.70;;;24.60;77.00;;;24.34;50.69;101161.84;5056195;28;20685;-77
2023/06/10 10:37:26;;;;;;;10.55;5.80;;;24.60;75.70;;;24.49;50.31;101155.84;5056389;28;20189;-77
2023/06/10 10:40:04;;;;;;;8.48;6.18;;;24.80;75.10;;;24.46;50.54;101159.91;5056395;28;20300;-77